Ana Sayfa
METAR-TAF:

METAR-TAF

Havaalanları :

Chaitén, Şili

Enlem: 42-55-58S, Boylam: 072-41-58W, yükseklik: 4 m

Güncel hava durumu gözlemi

Rapor saat 00:00 UTC de 1 saat ve 2 dakika önce yapıldı.
Rüzgar kuzeybatıdan 5 kt, batı/kuzeybatı ve kuzey arasında değişken
Sıcaklık 9°C
Nem 100%
Basınç 1012 hPa
Görüş mesafesi 10 km veya daha fazla
900 ft yükseklikte az bulutlu
2800 ft yükseklikte parçalı bulutlu
4500 ft yükseklikte çok bulutlu

METAR: SCTN 180000Z AUTO 32005KT 290V360 9999 FEW009 SCT028 OVC045 09/09 Q1012

Saat: 21:02 (01:02 UTC)


TAF: eksik

4.000'den fazla havaalanı için hava durumu gözlemleri ve tahminleri (METAR ve TAF raporları).

Kullanılabilir istasyonlar harita üzerinde sarı ve kırmızı noktalarla gösterilir.

İstasyonun adını görmek için fareyi noktanın üzerinde gezdirin.

Sonrasında hava gözlem ve tahminlerini görmek için tıklayın.

Haritayı değiştirmek için: yaklaştırmak için siyah artı işaretli yeşil düğmeye ve uzaklaştırmak için de eksi işaretli düğmeye hızla tıklayın; bitişik haritalar için yeşil okları kullanın.


METAR-TAF: